sensor_id;sensor_type;location;lat;lon;timestamp;P1;durP1;ratioP1;P2;durP2;ratioP2
19059;SDS011;9663;48.996;8.334;2022-09-12T00:01:30;5.75;;;2.42;;
19059;SDS011;9663;48.996;8.334;2022-09-12T00:03:51;3.85;;;1.75;;
19059;SDS011;9663;48.996;8.334;2022-09-12T00:06:21;5.05;;;1.65;;
19059;SDS011;9663;48.996;8.334;2022-09-12T00:08:53;3.95;;;1.77;;
19059;SDS011;9663;48.996;8.334;2022-09-12T00:11:21;4.03;;;1.58;;
19059;SDS011;9663;48.996;8.334;2022-09-12T00:13:48;3.80;;;1.63;;
19059;SDS011;9663;48.996;8.334;2022-09-12T00:16:18;4.45;;;1.92;;
19059;SDS011;9663;48.996;8.334;2022-09-12T00:18:47;4.70;;;1.80;;
19059;SDS011;9663;48.996;8.334;2022-09-12T00:21:13;3.78;;;1.60;;
19059;SDS011;9663;48.996;8.334;2022-09-12T00:23:41;5.15;;;1.80;;
19059;SDS011;9663;48.996;8.334;2022-09-12T00:26:07;3.60;;;1.77;;
19059;SDS011;9663;48.996;8.334;2022-09-12T00:28:35;6.28;;;1.55;;
19059;SDS011;9663;48.996;8.334;2022-09-12T00:31:04;3.17;;;1.33;;
19059;SDS011;9663;48.996;8.334;2022-09-12T00:33:32;3.13;;;1.38;;
19059;SDS011;9663;48.996;8.334;2022-09-12T00:36:02;3.60;;;1.52;;
19059;SDS011;9663;48.996;8.334;2022-09-12T00:38:30;3.60;;;1.50;;
19059;SDS011;9663;48.996;8.334;2022-09-12T00:40:56;4.45;;;1.70;;
19059;SDS011;9663;48.996;8.334;2022-09-12T00:46:12;3.90;;;1.63;;
19059;SDS011;9663;48.996;8.334;2022-09-12T00:48:46;3.33;;;1.45;;
19059;SDS011;9663;48.996;8.334;2022-09-12T00:51:54;4.30;;;1.70;;
19059;SDS011;9663;48.996;8.334;2022-09-12T00:54:30;3.88;;;1.77;;
19059;SDS011;9663;48.996;8.334;2022-09-12T00:57:03;4.53;;;1.50;;
19059;SDS011;9663;48.996;8.334;2022-09-12T01:02:38;3.28;;;1.30;;
19059;SDS011;9663;48.996;8.334;2022-09-12T01:05:05;3.40;;;1.55;;
19059;SDS011;9663;48.996;8.334;2022-09-12T01:07:34;4.25;;;1.70;;
19059;SDS011;9663;48.996;8.334;2022-09-12T01:10:05;3.40;;;1.40;;
19059;SDS011;9663;48.996;8.334;2022-09-12T01:12:33;3.70;;;1.73;;
19059;SDS011;9663;48.996;8.334;2022-09-12T01:15:05;4.38;;;1.80;;
19059;SDS011;9663;48.996;8.334;2022-09-12T01:17:45;3.72;;;1.42;;
19059;SDS011;9663;48.996;8.334;2022-09-12T01:20:40;5.50;;;1.60;;
19059;SDS011;9663;48.996;8.334;2022-09-12T01:26:42;3.60;;;1.50;;
19059;SDS011;9663;48.996;8.334;2022-09-12T01:29:43;4.25;;;1.92;;
19059;SDS011;9663;48.996;8.334;2022-09-12T01:35:18;4.00;;;1.45;;
19059;SDS011;9663;48.996;8.334;2022-09-12T01:37:53;3.20;;;1.40;;
19059;SDS011;9663;48.996;8.334;2022-09-12T01:46:15;3.38;;;1.63;;
19059;SDS011;9663;48.996;8.334;2022-09-12T01:48:44;3.10;;;1.27;;
19059;SDS011;9663;48.996;8.334;2022-09-12T01:51:25;2.80;;;1.30;;
19059;SDS011;9663;48.996;8.334;2022-09-12T01:54:06;3.03;;;1.30;;
19059;SDS011;9663;48.996;8.334;2022-09-12T01:56:58;3.30;;;1.42;;
19059;SDS011;9663;48.996;8.334;2022-09-12T01:59:38;3.40;;;1.33;;
19059;SDS011;9663;48.996;8.334;2022-09-12T02:02:11;5.28;;;1.45;;
19059;SDS011;9663;48.996;8.334;2022-09-12T02:04:53;3.50;;;1.58;;
19059;SDS011;9663;48.996;8.334;2022-09-12T02:07:28;3.58;;;1.38;;
19059;SDS011;9663;48.996;8.334;2022-09-12T02:10:11;3.72;;;1.55;;
19059;SDS011;9663;48.996;8.334;2022-09-12T02:12:51;4.93;;;1.67;;
19059;SDS011;9663;48.996;8.334;2022-09-12T02:15:39;3.42;;;1.60;;
19059;SDS011;9663;48.996;8.334;2022-09-12T02:18:15;2.90;;;1.33;;
19059;SDS011;9663;48.996;8.334;2022-09-12T02:20:45;2.97;;;1.25;;
19059;SDS011;9663;48.996;8.334;2022-09-12T02:23:14;3.67;;;1.77;;
19059;SDS011;9663;48.996;8.334;2022-09-12T02:25:47;3.40;;;1.45;;
19059;SDS011;9663;48.996;8.334;2022-09-12T02:28:20;3.25;;;1.60;;
19059;SDS011;9663;48.996;8.334;2022-09-12T02:39:26;3.75;;;1.60;;
19059;SDS011;9663;48.996;8.334;2022-09-12T02:41:53;3.70;;;1.55;;
19059;SDS011;9663;48.996;8.334;2022-09-12T02:44:23;3.70;;;1.50;;
19059;SDS011;9663;48.996;8.334;2022-09-12T02:46:56;4.88;;;1.60;;
19059;SDS011;9663;48.996;8.334;2022-09-12T02:49:32;3.17;;;1.38;;
19059;SDS011;9663;48.996;8.334;2022-09-12T02:51:58;3.28;;;1.40;;
19059;SDS011;9663;48.996;8.334;2022-09-12T02:54:26;5.90;;;1.45;;
19059;SDS011;9663;48.996;8.334;2022-09-12T02:56:53;3.10;;;1.40;;
19059;SDS011;9663;48.996;8.334;2022-09-12T02:59:19;4.35;;;1.45;;
19059;SDS011;9663;48.996;8.334;2022-09-12T03:07:58;3.45;;;1.48;;
19059;SDS011;9663;48.996;8.334;2022-09-12T03:19:24;3.95;;;1.58;;
19059;SDS011;9663;48.996;8.334;2022-09-12T03:22:12;3.75;;;1.60;;
19059;SDS011;9663;48.996;8.334;2022-09-12T03:24:52;4.30;;;1.77;;
19059;SDS011;9663;48.996;8.334;2022-09-12T03:27:52;5.43;;;1.60;;
19059;SDS011;9663;48.996;8.334;2022-09-12T03:30:35;5.25;;;2.00;;
19059;SDS011;9663;48.996;8.334;2022-09-12T03:33:17;4.70;;;1.85;;
19059;SDS011;9663;48.996;8.334;2022-09-12T03:35:46;3.78;;;1.70;;
19059;SDS011;9663;48.996;8.334;2022-09-12T03:38:13;5.18;;;1.67;;
19059;SDS011;9663;48.996;8.334;2022-09-12T03:40:40;3.50;;;1.77;;
19059;SDS011;9663;48.996;8.334;2022-09-12T03:43:07;5.28;;;1.83;;
19059;SDS011;9663;48.996;8.334;2022-09-12T03:45:34;3.70;;;1.92;;
19059;SDS011;9663;48.996;8.334;2022-09-12T03:48:01;4.47;;;2.10;;
19059;SDS011;9663;48.996;8.334;2022-09-12T03:50:28;4.32;;;2.03;;
19059;SDS011;9663;48.996;8.334;2022-09-12T03:52:54;3.30;;;1.48;;
19059;SDS011;9663;48.996;8.334;2022-09-12T03:55:20;3.58;;;1.73;;
19059;SDS011;9663;48.996;8.334;2022-09-12T03:57:45;3.92;;;1.88;;
19059;SDS011;9663;48.996;8.334;2022-09-12T04:00:11;3.65;;;1.70;;
19059;SDS011;9663;48.996;8.334;2022-09-12T04:02:37;4.07;;;1.65;;
19059;SDS011;9663;48.996;8.334;2022-09-12T04:05:03;3.10;;;1.50;;
19059;SDS011;9663;48.996;8.334;2022-09-12T04:07:29;3.72;;;1.83;;
19059;SDS011;9663;48.996;8.334;2022-09-12T04:09:55;3.97;;;1.83;;
19059;SDS011;9663;48.996;8.334;2022-09-12T04:12:20;4.25;;;1.90;;
19059;SDS011;9663;48.996;8.334;2022-09-12T04:14:46;3.70;;;1.70;;
19059;SDS011;9663;48.996;8.334;2022-09-12T04:17:12;4.25;;;2.13;;
19059;SDS011;9663;48.996;8.334;2022-09-12T04:19:38;4.05;;;1.88;;
19059;SDS011;9663;48.996;8.334;2022-09-12T04:22:04;3.45;;;1.77;;
19059;SDS011;9663;48.996;8.334;2022-09-12T04:24:30;3.95;;;1.95;;
19059;SDS011;9663;48.996;8.334;2022-09-12T04:26:56;5.78;;;2.08;;
19059;SDS011;9663;48.996;8.334;2022-09-12T04:29:22;4.20;;;2.03;;
19059;SDS011;9663;48.996;8.334;2022-09-12T04:31:48;4.68;;;1.73;;
19059;SDS011;9663;48.996;8.334;2022-09-12T04:34:14;4.65;;;1.90;;
19059;SDS011;9663;48.996;8.334;2022-09-12T04:36:40;3.50;;;1.60;;
19059;SDS011;9663;48.996;8.334;2022-09-12T04:39:06;3.67;;;1.70;;
19059;SDS011;9663;48.996;8.334;2022-09-12T04:41:34;3.47;;;1.80;;
19059;SDS011;9663;48.996;8.334;2022-09-12T04:44:06;3.58;;;1.83;;
19059;SDS011;9663;48.996;8.334;2022-09-12T04:46:39;4.50;;;1.77;;
19059;SDS011;9663;48.996;8.334;2022-09-12T04:49:09;3.78;;;1.83;;
19059;SDS011;9663;48.996;8.334;2022-09-12T04:51:37;4.47;;;1.70;;
19059;SDS011;9663;48.996;8.334;2022-09-12T04:54:06;4.05;;;1.90;;
19059;SDS011;9663;48.996;8.334;2022-09-12T04:56:41;4.25;;;2.10;;
19059;SDS011;9663;48.996;8.334;2022-09-12T04:59:09;4.10;;;2.00;;
19059;SDS011;9663;48.996;8.334;2022-09-12T05:01:37;3.88;;;1.88;;
19059;SDS011;9663;48.996;8.334;2022-09-12T05:04:04;4.78;;;2.58;;
19059;SDS011;9663;48.996;8.334;2022-09-12T05:06:30;4.10;;;2.10;;
19059;SDS011;9663;48.996;8.334;2022-09-12T05:08:59;3.67;;;1.77;;
19059;SDS011;9663;48.996;8.334;2022-09-12T05:11:31;4.90;;;1.90;;
19059;SDS011;9663;48.996;8.334;2022-09-12T05:14:00;6.10;;;2.13;;
19059;SDS011;9663;48.996;8.334;2022-09-12T05:16:27;5.05;;;2.00;;
19059;SDS011;9663;48.996;8.334;2022-09-12T05:18:55;4.00;;;2.00;;
19059;SDS011;9663;48.996;8.334;2022-09-12T05:21:22;4.18;;;2.03;;
19059;SDS011;9663;48.996;8.334;2022-09-12T05:23:52;4.35;;;2.30;;
19059;SDS011;9663;48.996;8.334;2022-09-12T05:26:20;3.88;;;1.90;;
19059;SDS011;9663;48.996;8.334;2022-09-12T05:28:47;5.55;;;2.20;;
19059;SDS011;9663;48.996;8.334;2022-09-12T05:33:50;4.32;;;2.10;;
19059;SDS011;9663;48.996;8.334;2022-09-12T05:36:19;4.53;;;2.08;;
19059;SDS011;9663;48.996;8.334;2022-09-12T05:38:51;4.13;;;2.10;;
19059;SDS011;9663;48.996;8.334;2022-09-12T05:41:18;4.15;;;2.20;;
19059;SDS011;9663;48.996;8.334;2022-09-12T05:43:53;5.78;;;2.33;;
19059;SDS011;9663;48.996;8.334;2022-09-12T05:46:22;4.40;;;2.20;;
19059;SDS011;9663;48.996;8.334;2022-09-12T05:48:50;4.30;;;2.33;;
19059;SDS011;9663;48.996;8.334;2022-09-12T05:51:19;4.05;;;1.95;;
19059;SDS011;9663;48.996;8.334;2022-09-12T05:53:51;3.95;;;1.95;;
19059;SDS011;9663;48.996;8.334;2022-09-12T05:56:21;4.20;;;2.28;;
19059;SDS011;9663;48.996;8.334;2022-09-12T05:58:54;4.38;;;2.15;;
19059;SDS011;9663;48.996;8.334;2022-09-12T06:01:26;4.47;;;2.40;;
19059;SDS011;9663;48.996;8.334;2022-09-12T06:03:55;4.82;;;2.50;;
19059;SDS011;9663;48.996;8.334;2022-09-12T06:06:27;4.45;;;2.17;;
19059;SDS011;9663;48.996;8.334;2022-09-12T06:08:56;4.28;;;2.08;;
19059;SDS011;9663;48.996;8.334;2022-09-12T06:11:25;4.95;;;2.63;;
19059;SDS011;9663;48.996;8.334;2022-09-12T06:13:56;4.65;;;2.03;;
19059;SDS011;9663;48.996;8.334;2022-09-12T06:16:24;9.15;;;2.13;;
19059;SDS011;9663;48.996;8.334;2022-09-12T06:18:54;4.10;;;2.10;;
19059;SDS011;9663;48.996;8.334;2022-09-12T06:21:25;4.40;;;2.22;;
19059;SDS011;9663;48.996;8.334;2022-09-12T06:23:52;5.65;;;2.55;;
19059;SDS011;9663;48.996;8.334;2022-09-12T06:26:19;4.85;;;2.85;;
19059;SDS011;9663;48.996;8.334;2022-09-12T06:28:47;5.22;;;2.85;;
19059;SDS011;9663;48.996;8.334;2022-09-12T06:31:15;4.88;;;2.70;;
19059;SDS011;9663;48.996;8.334;2022-09-12T06:33:46;7.25;;;2.60;;
19059;SDS011;9663;48.996;8.334;2022-09-12T06:36:24;5.40;;;2.65;;
19059;SDS011;9663;48.996;8.334;2022-09-12T06:38:57;5.25;;;2.75;;
19059;SDS011;9663;48.996;8.334;2022-09-12T06:41:26;4.72;;;2.20;;
19059;SDS011;9663;48.996;8.334;2022-09-12T06:43:55;4.32;;;2.45;;
19059;SDS011;9663;48.996;8.334;2022-09-12T06:46:23;5.10;;;2.63;;
19059;SDS011;9663;48.996;8.334;2022-09-12T06:48:49;5.50;;;2.70;;
19059;SDS011;9663;48.996;8.334;2022-09-12T06:51:16;4.82;;;2.78;;
19059;SDS011;9663;48.996;8.334;2022-09-12T06:53:44;6.43;;;2.85;;
19059;SDS011;9663;48.996;8.334;2022-09-12T06:56:12;4.93;;;2.70;;
19059;SDS011;9663;48.996;8.334;2022-09-12T06:58:45;5.35;;;2.95;;
19059;SDS011;9663;48.996;8.334;2022-09-12T07:01:14;5.40;;;2.75;;
19059;SDS011;9663;48.996;8.334;2022-09-12T07:03:42;5.47;;;2.60;;
19059;SDS011;9663;48.996;8.334;2022-09-12T07:06:13;5.25;;;2.72;;
19059;SDS011;9663;48.996;8.334;2022-09-12T07:08:41;5.38;;;2.92;;
19059;SDS011;9663;48.996;8.334;2022-09-12T07:11:14;5.35;;;3.03;;
19059;SDS011;9663;48.996;8.334;2022-09-12T07:13:44;5.15;;;2.92;;
19059;SDS011;9663;48.996;8.334;2022-09-12T07:16:13;5.25;;;2.95;;
19059;SDS011;9663;48.996;8.334;2022-09-12T07:18:40;5.18;;;2.60;;
19059;SDS011;9663;48.996;8.334;2022-09-12T07:21:06;5.00;;;3.03;;
19059;SDS011;9663;48.996;8.334;2022-09-12T07:23:38;4.60;;;2.70;;
19059;SDS011;9663;48.996;8.334;2022-09-12T07:26:04;6.05;;;2.53;;
19059;SDS011;9663;48.996;8.334;2022-09-12T07:28:32;7.28;;;3.30;;
19059;SDS011;9663;48.996;8.334;2022-09-12T07:31:08;5.60;;;3.05;;
19059;SDS011;9663;48.996;8.334;2022-09-12T07:33:40;5.28;;;2.90;;
19059;SDS011;9663;48.996;8.334;2022-09-12T07:36:09;5.05;;;2.90;;
19059;SDS011;9663;48.996;8.334;2022-09-12T07:38:38;5.47;;;3.20;;
19059;SDS011;9663;48.996;8.334;2022-09-12T07:41:16;5.68;;;3.58;;
19059;SDS011;9663;48.996;8.334;2022-09-12T07:43:45;5.18;;;3.17;;
19059;SDS011;9663;48.996;8.334;2022-09-12T07:46:12;5.68;;;3.30;;
19059;SDS011;9663;48.996;8.334;2022-09-12T07:48:38;5.25;;;2.78;;
19059;SDS011;9663;48.996;8.334;2022-09-12T07:51:05;4.90;;;2.85;;
19059;SDS011;9663;48.996;8.334;2022-09-12T07:53:37;5.43;;;2.90;;
19059;SDS011;9663;48.996;8.334;2022-09-12T07:56:06;5.28;;;3.40;;
19059;SDS011;9663;48.996;8.334;2022-09-12T07:58:34;4.72;;;2.85;;
19059;SDS011;9663;48.996;8.334;2022-09-12T08:03:42;5.18;;;3.25;;
19059;SDS011;9663;48.996;8.334;2022-09-12T08:06:12;6.15;;;2.80;;
19059;SDS011;9663;48.996;8.334;2022-09-12T08:08:44;5.47;;;3.17;;
19059;SDS011;9663;48.996;8.334;2022-09-12T08:11:12;4.95;;;2.97;;
19059;SDS011;9663;48.996;8.334;2022-09-12T08:13:40;5.60;;;3.20;;
19059;SDS011;9663;48.996;8.334;2022-09-12T08:16:13;5.25;;;2.97;;
19059;SDS011;9663;48.996;8.334;2022-09-12T08:18:43;5.43;;;2.90;;
19059;SDS011;9663;48.996;8.334;2022-09-12T08:21:11;5.95;;;3.05;;
19059;SDS011;9663;48.996;8.334;2022-09-12T08:23:43;4.20;;;2.28;;
19059;SDS011;9663;48.996;8.334;2022-09-12T08:26:09;6.53;;;2.42;;
19059;SDS011;9663;48.996;8.334;2022-09-12T08:28:36;5.82;;;2.72;;
19059;SDS011;9663;48.996;8.334;2022-09-12T08:31:08;5.03;;;2.70;;
19059;SDS011;9663;48.996;8.334;2022-09-12T08:33:37;4.72;;;2.83;;
19059;SDS011;9663;48.996;8.334;2022-09-12T08:38:32;5.95;;;2.63;;
19059;SDS011;9663;48.996;8.334;2022-09-12T08:44:06;4.57;;;2.40;;
19059;SDS011;9663;48.996;8.334;2022-09-12T08:49:52;4.75;;;2.50;;
19059;SDS011;9663;48.996;8.334;2022-09-12T08:55:05;6.43;;;4.30;;
19059;SDS011;9663;48.996;8.334;2022-09-12T08:57:52;5.07;;;2.80;;
19059;SDS011;9663;48.996;8.334;2022-09-12T09:00:18;4.97;;;2.75;;
19059;SDS011;9663;48.996;8.334;2022-09-12T09:05:32;4.50;;;2.30;;
19059;SDS011;9663;48.996;8.334;2022-09-12T09:11:20;4.45;;;2.38;;
19059;SDS011;9663;48.996;8.334;2022-09-12T09:17:13;5.10;;;2.22;;
19059;SDS011;9663;48.996;8.334;2022-09-12T09:22:45;3.85;;;2.03;;
19059;SDS011;9663;48.996;8.334;2022-09-12T09:28:13;5.25;;;2.25;;
19059;SDS011;9663;48.996;8.334;2022-09-12T09:30:46;4.07;;;2.28;;
19059;SDS011;9663;48.996;8.334;2022-09-12T09:33:23;4.00;;;2.22;;
19059;SDS011;9663;48.996;8.334;2022-09-12T09:39:11;4.10;;;2.20;;
19059;SDS011;9663;48.996;8.334;2022-09-12T09:42:00;3.60;;;1.90;;
19059;SDS011;9663;48.996;8.334;2022-09-12T09:44:38;4.15;;;1.80;;
19059;SDS011;9663;48.996;8.334;2022-09-12T09:47:04;4.20;;;2.22;;
19059;SDS011;9663;48.996;8.334;2022-09-12T09:49:31;4.05;;;2.08;;
19059;SDS011;9663;48.996;8.334;2022-09-12T09:51:59;6.95;;;2.75;;
19059;SDS011;9663;48.996;8.334;2022-09-12T09:57:28;3.80;;;1.88;;
19059;SDS011;9663;48.996;8.334;2022-09-12T10:02:58;3.97;;;1.98;;
19059;SDS011;9663;48.996;8.334;2022-09-12T10:05:34;4.35;;;2.55;;
19059;SDS011;9663;48.996;8.334;2022-09-12T10:08:32;4.10;;;2.15;;
19059;SDS011;9663;48.996;8.334;2022-09-12T10:11:16;3.90;;;2.00;;
19059;SDS011;9663;48.996;8.334;2022-09-12T10:16:22;5.53;;;1.67;;
19059;SDS011;9663;48.996;8.334;2022-09-12T10:19:18;2.97;;;1.45;;
19059;SDS011;9663;48.996;8.334;2022-09-12T10:21:50;3.13;;;1.60;;
19059;SDS011;9663;48.996;8.334;2022-09-12T10:24:21;4.70;;;1.70;;
19059;SDS011;9663;48.996;8.334;2022-09-12T10:30:15;3.47;;;1.65;;
19059;SDS011;9663;48.996;8.334;2022-09-12T10:32:42;3.72;;;1.60;;
19059;SDS011;9663;48.996;8.334;2022-09-12T10:35:15;3.08;;;1.67;;
19059;SDS011;9663;48.996;8.334;2022-09-12T10:38:00;4.10;;;1.90;;
19059;SDS011;9663;48.996;8.334;2022-09-12T10:40:34;3.47;;;1.70;;
19059;SDS011;9663;48.996;8.334;2022-09-12T10:43:16;3.70;;;1.92;;
19059;SDS011;9663;48.996;8.334;2022-09-12T10:45:55;3.00;;;1.40;;
19059;SDS011;9663;48.996;8.334;2022-09-12T10:48:27;4.07;;;1.50;;
19059;SDS011;9663;48.996;8.334;2022-09-12T10:50:56;4.18;;;1.90;;
19059;SDS011;9663;48.996;8.334;2022-09-12T10:53:42;3.80;;;1.83;;
19059;SDS011;9663;48.996;8.334;2022-09-12T10:56:15;4.15;;;1.85;;
19059;SDS011;9663;48.996;8.334;2022-09-12T11:01:45;3.42;;;1.60;;
19059;SDS011;9663;48.996;8.334;2022-09-12T11:12:52;6.18;;;1.80;;
19059;SDS011;9663;48.996;8.334;2022-09-12T11:29:57;4.45;;;1.45;;
19059;SDS011;9663;48.996;8.334;2022-09-12T11:46:10;2.97;;;1.40;;
19059;SDS011;9663;48.996;8.334;2022-09-12T11:48:55;2.80;;;1.30;;
19059;SDS011;9663;48.996;8.334;2022-09-12T11:56:59;2.70;;;1.30;;
19059;SDS011;9663;48.996;8.334;2022-09-12T12:06:02;2.75;;;1.30;;
19059;SDS011;9663;48.996;8.334;2022-09-12T12:08:38;3.08;;;1.23;;
19059;SDS011;9663;48.996;8.334;2022-09-12T12:11:06;2.85;;;1.27;;
19059;SDS011;9663;48.996;8.334;2022-09-12T12:13:51;3.22;;;1.60;;
19059;SDS011;9663;48.996;8.334;2022-09-12T12:18:57;2.72;;;1.10;;
19059;SDS011;9663;48.996;8.334;2022-09-12T12:21:38;2.50;;;1.10;;
19059;SDS011;9663;48.996;8.334;2022-09-12T12:26:53;3.28;;;1.40;;
19059;SDS011;9663;48.996;8.334;2022-09-12T12:34:44;2.63;;;1.05;;
19059;SDS011;9663;48.996;8.334;2022-09-12T12:42:09;2.15;;;1.00;;
19059;SDS011;9663;48.996;8.334;2022-09-12T12:47:38;2.28;;;1.00;;
19059;SDS011;9663;48.996;8.334;2022-09-12T12:55:52;2.20;;;0.90;;
19059;SDS011;9663;48.996;8.334;2022-09-12T12:58:30;2.13;;;0.98;;
19059;SDS011;9663;48.996;8.334;2022-09-12T13:03:45;2.42;;;1.20;;
19059;SDS011;9663;48.996;8.334;2022-09-12T13:06:29;2.72;;;1.20;;
19059;SDS011;9663;48.996;8.334;2022-09-12T13:09:08;2.60;;;1.10;;
19059;SDS011;9663;48.996;8.334;2022-09-12T13:11:56;1.98;;;0.85;;
19059;SDS011;9663;48.996;8.334;2022-09-12T13:17:12;2.10;;;1.00;;
19059;SDS011;9663;48.996;8.334;2022-09-12T13:22:37;2.70;;;1.00;;
19059;SDS011;9663;48.996;8.334;2022-09-12T13:25:16;2.58;;;1.10;;
19059;SDS011;9663;48.996;8.334;2022-09-12T13:30:36;1.88;;;0.95;;
19059;SDS011;9663;48.996;8.334;2022-09-12T13:47:35;2.55;;;0.90;;
19059;SDS011;9663;48.996;8.334;2022-09-12T13:50:12;2.28;;;0.98;;
19059;SDS011;9663;48.996;8.334;2022-09-12T13:52:50;1.85;;;0.85;;
19059;SDS011;9663;48.996;8.334;2022-09-12T13:55:28;2.70;;;1.00;;
19059;SDS011;9663;48.996;8.334;2022-09-12T13:58:04;1.90;;;0.80;;
19059;SDS011;9663;48.996;8.334;2022-09-12T14:00:45;2.55;;;1.08;;
19059;SDS011;9663;48.996;8.334;2022-09-12T14:03:23;2.63;;;1.10;;
19059;SDS011;9663;48.996;8.334;2022-09-12T14:06:11;3.60;;;0.80;;
19059;SDS011;9663;48.996;8.334;2022-09-12T14:08:40;2.10;;;0.90;;
19059;SDS011;9663;48.996;8.334;2022-09-12T14:11:08;1.88;;;0.88;;
19059;SDS011;9663;48.996;8.334;2022-09-12T14:13:36;2.47;;;1.00;;
19059;SDS011;9663;48.996;8.334;2022-09-12T14:16:03;2.17;;;1.00;;
19059;SDS011;9663;48.996;8.334;2022-09-12T14:18:33;2.33;;;1.05;;
19059;SDS011;9663;48.996;8.334;2022-09-12T14:21:09;2.45;;;0.98;;
19059;SDS011;9663;48.996;8.334;2022-09-12T14:23:50;2.05;;;0.90;;
19059;SDS011;9663;48.996;8.334;2022-09-12T14:26:16;2.22;;;1.00;;
19059;SDS011;9663;48.996;8.334;2022-09-12T14:28:42;2.03;;;0.80;;
19059;SDS011;9663;48.996;8.334;2022-09-12T14:33:46;2.45;;;0.90;;
19059;SDS011;9663;48.996;8.334;2022-09-12T14:36:22;1.92;;;1.00;;
19059;SDS011;9663;48.996;8.334;2022-09-12T14:39:00;1.83;;;0.90;;
19059;SDS011;9663;48.996;8.334;2022-09-12T14:41:32;1.75;;;0.90;;
19059;SDS011;9663;48.996;8.334;2022-09-12T14:44:05;1.90;;;0.93;;
19059;SDS011;9663;48.996;8.334;2022-09-12T14:46:44;2.00;;;0.85;;
19059;SDS011;9663;48.996;8.334;2022-09-12T14:54:37;1.98;;;0.85;;
19059;SDS011;9663;48.996;8.334;2022-09-12T15:02:44;2.65;;;1.00;;
19059;SDS011;9663;48.996;8.334;2022-09-12T15:07:38;1.77;;;0.80;;
19059;SDS011;9663;48.996;8.334;2022-09-12T15:15:33;2.10;;;0.90;;
19059;SDS011;9663;48.996;8.334;2022-09-12T15:18:00;2.15;;;0.93;;
19059;SDS011;9663;48.996;8.334;2022-09-12T15:20:27;1.65;;;0.70;;
19059;SDS011;9663;48.996;8.334;2022-09-12T15:22:53;1.88;;;0.90;;
19059;SDS011;9663;48.996;8.334;2022-09-12T15:25:18;1.70;;;0.90;;
19059;SDS011;9663;48.996;8.334;2022-09-12T15:27:45;2.05;;;0.85;;
19059;SDS011;9663;48.996;8.334;2022-09-12T15:30:11;1.75;;;0.85;;
19059;SDS011;9663;48.996;8.334;2022-09-12T15:32:41;1.90;;;0.80;;
19059;SDS011;9663;48.996;8.334;2022-09-12T15:35:11;2.05;;;0.90;;
19059;SDS011;9663;48.996;8.334;2022-09-12T15:37:49;3.20;;;0.80;;
19059;SDS011;9663;48.996;8.334;2022-09-12T15:40:15;2.05;;;0.90;;
19059;SDS011;9663;48.996;8.334;2022-09-12T15:42:41;2.88;;;0.80;;
19059;SDS011;9663;48.996;8.334;2022-09-12T15:45:15;2.22;;;0.90;;
19059;SDS011;9663;48.996;8.334;2022-09-12T15:47:46;2.60;;;0.85;;
19059;SDS011;9663;48.996;8.334;2022-09-12T15:50:11;2.33;;;0.90;;
19059;SDS011;9663;48.996;8.334;2022-09-12T15:52:38;1.70;;;0.70;;
19059;SDS011;9663;48.996;8.334;2022-09-12T15:55:05;2.50;;;0.98;;
19059;SDS011;9663;48.996;8.334;2022-09-12T15:57:46;2.17;;;0.77;;
19059;SDS011;9663;48.996;8.334;2022-09-12T16:00:13;1.90;;;0.80;;
19059;SDS011;9663;48.996;8.334;2022-09-12T16:02:41;1.95;;;0.88;;
19059;SDS011;9663;48.996;8.334;2022-09-12T16:05:22;1.42;;;0.60;;
19059;SDS011;9663;48.996;8.334;2022-09-12T16:07:51;1.63;;;0.73;;
19059;SDS011;9663;48.996;8.334;2022-09-12T16:10:22;4.50;;;0.80;;
19059;SDS011;9663;48.996;8.334;2022-09-12T16:12:53;1.08;;;0.57;;
19059;SDS011;9663;48.996;8.334;2022-09-12T16:15:19;1.90;;;0.73;;
19059;SDS011;9663;48.996;8.334;2022-09-12T16:17:48;1.40;;;0.60;;
19059;SDS011;9663;48.996;8.334;2022-09-12T16:20:14;1.85;;;0.70;;
19059;SDS011;9663;48.996;8.334;2022-09-12T16:22:41;1.67;;;0.77;;
19059;SDS011;9663;48.996;8.334;2022-09-12T16:25:07;2.35;;;0.80;;
19059;SDS011;9663;48.996;8.334;2022-09-12T16:27:33;1.95;;;0.70;;
19059;SDS011;9663;48.996;8.334;2022-09-12T16:29:59;1.83;;;0.80;;
19059;SDS011;9663;48.996;8.334;2022-09-12T16:32:25;1.50;;;0.63;;
19059;SDS011;9663;48.996;8.334;2022-09-12T16:34:51;2.30;;;0.82;;
19059;SDS011;9663;48.996;8.334;2022-09-12T16:37:17;1.73;;;0.70;;
19059;SDS011;9663;48.996;8.334;2022-09-12T16:39:43;1.92;;;0.80;;
19059;SDS011;9663;48.996;8.334;2022-09-12T16:42:09;2.05;;;0.80;;
19059;SDS011;9663;48.996;8.334;2022-09-12T16:44:34;2.95;;;0.88;;
19059;SDS011;9663;48.996;8.334;2022-09-12T16:47:00;2.30;;;0.82;;
19059;SDS011;9663;48.996;8.334;2022-09-12T16:49:26;1.42;;;0.60;;
19059;SDS011;9663;48.996;8.334;2022-09-12T16:51:51;2.50;;;0.70;;
19059;SDS011;9663;48.996;8.334;2022-09-12T16:54:17;1.95;;;0.80;;
19059;SDS011;9663;48.996;8.334;2022-09-12T16:56:43;1.98;;;0.80;;
19059;SDS011;9663;48.996;8.334;2022-09-12T16:59:10;2.47;;;0.90;;
19059;SDS011;9663;48.996;8.334;2022-09-12T17:01:40;1.60;;;0.70;;
19059;SDS011;9663;48.996;8.334;2022-09-12T17:04:06;2.00;;;0.82;;
19059;SDS011;9663;48.996;8.334;2022-09-12T17:06:34;1.67;;;0.60;;
19059;SDS011;9663;48.996;8.334;2022-09-12T17:09:01;1.88;;;0.80;;
19059;SDS011;9663;48.996;8.334;2022-09-12T17:11:29;1.70;;;0.70;;
19059;SDS011;9663;48.996;8.334;2022-09-12T17:14:02;2.17;;;0.90;;
19059;SDS011;9663;48.996;8.334;2022-09-12T17:16:32;2.17;;;0.80;;
19059;SDS011;9663;48.996;8.334;2022-09-12T17:19:01;2.10;;;0.77;;
19059;SDS011;9663;48.996;8.334;2022-09-12T17:21:28;1.92;;;0.80;;
19059;SDS011;9663;48.996;8.334;2022-09-12T17:23:54;2.53;;;0.90;;
19059;SDS011;9663;48.996;8.334;2022-09-12T17:26:19;1.70;;;0.73;;
19059;SDS011;9663;48.996;8.334;2022-09-12T17:28:45;1.88;;;0.80;;
19059;SDS011;9663;48.996;8.334;2022-09-12T17:31:12;2.28;;;0.95;;
19059;SDS011;9663;48.996;8.334;2022-09-12T17:33:38;2.20;;;0.70;;
19059;SDS011;9663;48.996;8.334;2022-09-12T17:36:06;2.20;;;0.80;;
19059;SDS011;9663;48.996;8.334;2022-09-12T17:38:39;3.25;;;0.95;;
19059;SDS011;9663;48.996;8.334;2022-09-12T17:41:07;3.35;;;0.88;;
19059;SDS011;9663;48.996;8.334;2022-09-12T17:43:51;2.35;;;0.90;;
19059;SDS011;9663;48.996;8.334;2022-09-12T17:46:21;2.63;;;1.00;;
19059;SDS011;9663;48.996;8.334;2022-09-12T17:48:57;2.65;;;0.90;;
19059;SDS011;9663;48.996;8.334;2022-09-12T17:51:25;1.92;;;0.80;;
19059;SDS011;9663;48.996;8.334;2022-09-12T17:53:58;3.17;;;1.10;;
19059;SDS011;9663;48.996;8.334;2022-09-12T17:56:28;3.65;;;1.10;;
19059;SDS011;9663;48.996;8.334;2022-09-12T17:58:56;2.60;;;0.90;;
19059;SDS011;9663;48.996;8.334;2022-09-12T18:01:23;3.30;;;0.93;;
19059;SDS011;9663;48.996;8.334;2022-09-12T18:04:12;2.40;;;0.80;;
19059;SDS011;9663;48.996;8.334;2022-09-12T18:06:38;2.10;;;0.80;;
19059;SDS011;9663;48.996;8.334;2022-09-12T18:09:06;2.33;;;0.77;;
19059;SDS011;9663;48.996;8.334;2022-09-12T18:11:33;3.13;;;0.90;;
19059;SDS011;9663;48.996;8.334;2022-09-12T18:13:59;3.28;;;1.08;;
19059;SDS011;9663;48.996;8.334;2022-09-12T18:16:25;2.40;;;1.10;;
19059;SDS011;9663;48.996;8.334;2022-09-12T18:18:52;2.88;;;1.00;;
19059;SDS011;9663;48.996;8.334;2022-09-12T18:21:19;1.98;;;0.80;;
19059;SDS011;9663;48.996;8.334;2022-09-12T18:23:45;2.10;;;0.90;;
19059;SDS011;9663;48.996;8.334;2022-09-12T18:26:11;2.10;;;0.90;;
19059;SDS011;9663;48.996;8.334;2022-09-12T18:28:39;3.13;;;0.82;;
19059;SDS011;9663;48.996;8.334;2022-09-12T18:31:14;3.03;;;1.05;;
19059;SDS011;9663;48.996;8.334;2022-09-12T18:33:43;3.25;;;1.00;;
19059;SDS011;9663;48.996;8.334;2022-09-12T18:36:10;4.95;;;1.20;;
19059;SDS011;9663;48.996;8.334;2022-09-12T18:38:38;3.33;;;1.30;;
19059;SDS011;9663;48.996;8.334;2022-09-12T18:41:06;2.85;;;1.05;;
19059;SDS011;9663;48.996;8.334;2022-09-12T18:43:35;5.07;;;1.50;;
19059;SDS011;9663;48.996;8.334;2022-09-12T18:46:06;3.00;;;1.25;;
19059;SDS011;9663;48.996;8.334;2022-09-12T18:48:34;3.58;;;1.33;;
19059;SDS011;9663;48.996;8.334;2022-09-12T18:51:05;3.08;;;1.23;;
19059;SDS011;9663;48.996;8.334;2022-09-12T18:53:39;3.63;;;1.60;;
19059;SDS011;9663;48.996;8.334;2022-09-12T18:56:07;3.35;;;1.40;;